createdAt,value
2022-10-06T00:01:03.763Z,102164.97
2022-10-06T00:03:31.067Z,102172.19
2022-10-06T00:06:02.625Z,102177.47
2022-10-06T00:08:31.476Z,102187.91
2022-10-06T00:10:58.315Z,102194.00
2022-10-06T00:13:26.068Z,102197.31
2022-10-06T00:15:53.011Z,102202.50
2022-10-06T00:18:19.755Z,102212.88
2022-10-06T00:20:53.880Z,102217.28
2022-10-06T00:23:21.166Z,102220.81
2022-10-06T00:25:47.589Z,102229.50
2022-10-06T00:28:14.244Z,102221.72
2022-10-06T00:30:40.805Z,102241.91
2022-10-06T00:33:07.335Z,102238.53
2022-10-06T00:35:34.636Z,102243.06
2022-10-06T00:38:01.868Z,102254.66
2022-10-06T00:40:29.732Z,102257.44
2022-10-06T00:42:59.390Z,102261.00
2022-10-06T00:45:39.755Z,102263.81
2022-10-06T00:48:12.900Z,102277.94
2022-10-06T00:50:40.513Z,102282.44
2022-10-06T00:53:07.621Z,102286.09
2022-10-06T00:55:34.258Z,102300.88
2022-10-06T00:58:01.311Z,102296.69
2022-10-06T01:00:28.502Z,102299.50
2022-10-06T01:02:59.172Z,102303.16
2022-10-06T01:05:30.566Z,102305.91
2022-10-06T01:07:57.716Z,102307.78
2022-10-06T01:10:24.376Z,102310.63
2022-10-06T01:12:52.117Z,102314.06
2022-10-06T01:15:21.534Z,102321.88
2022-10-06T01:18:15.053Z,102326.25
2022-10-06T01:21:05.550Z,102329.75
2022-10-06T01:23:33.487Z,102340.41
2022-10-06T01:26:03.660Z,102349.25
2022-10-06T01:28:30.854Z,102345.16
2022-10-06T01:31:00.848Z,102347.03
2022-10-06T01:33:29.778Z,102354.13
2022-10-06T01:35:56.512Z,102366.44
2022-10-06T01:38:23.444Z,102371.84
2022-10-06T01:40:52.443Z,102372.81
2022-10-06T01:43:19.101Z,102368.53
2022-10-06T01:45:45.537Z,102364.34
2022-10-06T01:48:12.006Z,102360.03
2022-10-06T01:50:41.151Z,102357.56
2022-10-06T01:53:07.694Z,102375.09
2022-10-06T01:55:34.184Z,102373.50
2022-10-06T01:58:00.655Z,102383.25
2022-10-06T02:00:27.139Z,102381.53
2022-10-06T02:02:53.744Z,102397.28
2022-10-06T02:05:20.204Z,102391.28
2022-10-06T02:07:46.607Z,102399.22
2022-10-06T02:10:13.063Z,102402.81
2022-10-06T02:12:39.532Z,102407.22
2022-10-06T02:15:06.574Z,102416.00
2022-10-06T02:17:33.017Z,102416.09
2022-10-06T02:19:59.426Z,102423.25
2022-10-06T02:22:25.896Z,102428.50
2022-10-06T02:24:52.324Z,102432.94
2022-10-06T02:27:18.718Z,102433.00
2022-10-06T02:29:45.164Z,102429.69
2022-10-06T02:32:11.603Z,102430.69
2022-10-06T02:34:38.376Z,102429.09
2022-10-06T02:37:05.388Z,102439.53
2022-10-06T02:39:31.830Z,102445.75
2022-10-06T02:41:58.266Z,102443.25
2022-10-06T02:44:25.245Z,102453.72
2022-10-06T02:46:52.719Z,102454.66
2022-10-06T02:49:19.174Z,102459.94
2022-10-06T02:51:48.210Z,102460.03
2022-10-06T02:54:15.440Z,102468.81
2022-10-06T02:56:41.868Z,102475.00
2022-10-06T02:59:08.262Z,102480.31
2022-10-06T03:01:35.200Z,102482.09
2022-10-06T03:04:01.722Z,102483.03
2022-10-06T03:06:30.955Z,102493.53
2022-10-06T03:09:02.478Z,102500.50
2022-10-06T03:11:32.028Z,102504.94
2022-10-06T03:13:59.331Z,102507.66
2022-10-06T03:16:26.982Z,102512.09
2022-10-06T03:18:55.465Z,102511.31
2022-10-06T03:21:24.440Z,102520.97
2022-10-06T03:23:53.393Z,102517.59
2022-10-06T03:26:22.903Z,102521.97
2022-10-06T03:28:49.539Z,102524.66
2022-10-06T03:31:18.039Z,102525.56
2022-10-06T03:33:44.645Z,102525.63
2022-10-06T03:36:13.202Z,102534.38
2022-10-06T03:38:39.924Z,102535.28
2022-10-06T03:41:10.554Z,102541.44
2022-10-06T03:43:38.236Z,102551.06
2022-10-06T03:46:06.159Z,102549.38
2022-10-06T03:48:34.924Z,102555.47
2022-10-06T03:51:04.697Z,102570.25
2022-10-06T03:53:32.533Z,102568.56
2022-10-06T03:56:04.308Z,102569.56
2022-10-06T03:58:33.104Z,102567.91
2022-10-06T04:01:01.529Z,102569.66
2022-10-06T04:03:28.485Z,102578.41
2022-10-06T04:06:00.776Z,102579.34
2022-10-06T04:08:28.889Z,102595.84
2022-10-06T04:10:56.293Z,102601.16
2022-10-06T04:13:22.859Z,102597.72
2022-10-06T04:15:49.286Z,102600.44
2022-10-06T04:18:16.155Z,102603.97
2022-10-06T04:20:42.653Z,102610.16
2022-10-06T04:23:09.547Z,102615.34
2022-10-06T04:25:36.008Z,102611.00
2022-10-06T04:28:02.475Z,102631.84
2022-10-06T04:30:29.244Z,102627.53
2022-10-06T04:32:55.821Z,102639.78
2022-10-06T04:35:23.315Z,102636.31
2022-10-06T04:37:50.139Z,102636.44
2022-10-06T04:40:16.659Z,102642.56
2022-10-06T04:42:43.322Z,102646.03
2022-10-06T04:45:10.534Z,102652.13
2022-10-06T04:47:37.049Z,102651.28
2022-10-06T04:50:03.941Z,102656.53
2022-10-06T04:52:30.350Z,102664.38
2022-10-06T04:54:57.315Z,102667.03
2022-10-06T04:57:23.808Z,102669.66
2022-10-06T05:00:15.089Z,102671.50
2022-10-06T05:02:41.907Z,102674.16
2022-10-06T05:05:08.473Z,102676.78
2022-10-06T05:07:34.928Z,102677.66
2022-10-06T05:10:01.366Z,102682.94
2022-10-06T05:12:31.036Z,102682.13
2022-10-06T05:14:58.002Z,102694.28
2022-10-06T05:17:24.488Z,102698.66
2022-10-06T05:19:50.957Z,102692.66
2022-10-06T05:22:17.404Z,102702.22
2022-10-06T05:24:43.826Z,102703.13
2022-10-06T05:27:10.314Z,102711.84
2022-10-06T05:29:36.872Z,102706.69
2022-10-06T05:32:03.437Z,102711.91
2022-10-06T05:34:29.899Z,102717.19
2022-10-06T05:36:56.377Z,102722.44
2022-10-06T05:39:22.847Z,102732.91
2022-10-06T05:41:49.967Z,102732.91
2022-10-06T05:44:16.375Z,102739.03
2022-10-06T05:46:42.786Z,102743.41
2022-10-06T05:49:11.438Z,102737.38
2022-10-06T05:51:41.087Z,102750.38
2022-10-06T05:54:07.657Z,102756.47
2022-10-06T05:56:36.518Z,102757.38
2022-10-06T05:59:04.646Z,102753.94
2022-10-06T06:01:34.853Z,102760.88
2022-10-06T06:04:07.290Z,102762.63
2022-10-06T06:06:44.568Z,102768.69
2022-10-06T06:09:18.829Z,102774.78
2022-10-06T06:11:48.020Z,102786.06
2022-10-06T06:14:17.093Z,102792.09
2022-10-06T06:16:44.603Z,102792.97
2022-10-06T06:19:12.853Z,102795.53
2022-10-06T06:21:39.887Z,102801.56
2022-10-06T06:24:07.111Z,102804.13
2022-10-06T06:26:36.910Z,102791.09
2022-10-06T06:29:04.339Z,102797.13
2022-10-06T06:31:33.452Z,102805.72
2022-10-06T06:34:02.739Z,102799.59
2022-10-06T06:36:35.591Z,102801.28
2022-10-06T06:39:05.313Z,102813.34
2022-10-06T06:41:37.577Z,102813.22
2022-10-06T06:44:06.836Z,102821.84
2022-10-06T06:46:36.790Z,102827.78
2022-10-06T06:49:06.382Z,102830.28
2022-10-06T06:51:37.851Z,102836.25
2022-10-06T06:54:05.190Z,102831.78
2022-10-06T06:56:34.849Z,102837.72
2022-10-06T06:59:06.591Z,102844.50
2022-10-06T07:01:33.075Z,102840.91
2022-10-06T07:03:59.640Z,102847.69
2022-10-06T07:06:28.723Z,102852.72
2022-10-06T07:08:59.682Z,102855.16
2022-10-06T07:11:31.814Z,102854.13
2022-10-06T07:14:01.657Z,102859.19
2022-10-06T07:16:48.558Z,102867.75
2022-10-06T07:19:35.381Z,102871.06
2022-10-06T07:22:26.481Z,102872.63
2022-10-06T07:25:13.263Z,102880.25
2022-10-06T07:27:45.215Z,102882.69
2022-10-06T07:30:19.525Z,102889.47
2022-10-06T07:32:50.489Z,102895.41
2022-10-06T07:35:20.289Z,102899.59
2022-10-06T07:37:47.916Z,102907.22
2022-10-06T07:40:15.074Z,102907.09
2022-10-06T07:42:48.263Z,102914.75
2022-10-06T07:45:38.869Z,102916.34
2022-10-06T07:48:07.873Z,102930.00
2022-10-06T07:50:34.540Z,102927.22
2022-10-06T07:53:07.651Z,102931.44
2022-10-06T07:55:36.329Z,102933.00
2022-10-06T07:58:02.923Z,102938.91
2022-10-06T08:00:29.391Z,102948.34
2022-10-06T08:02:55.995Z,102936.03
2022-10-06T08:05:22.499Z,102941.09
2022-10-06T08:07:48.938Z,102933.88
2022-10-06T08:10:18.434Z,102935.53
2022-10-06T08:12:44.938Z,102939.69
2022-10-06T08:15:13.014Z,102947.28
2022-10-06T08:17:40.077Z,102940.22
2022-10-06T08:20:09.173Z,102945.22
2022-10-06T08:22:38.817Z,102945.00
2022-10-06T08:25:07.405Z,102956.97
2022-10-06T08:27:35.354Z,102957.63
2022-10-06T08:30:02.736Z,102960.03
2022-10-06T08:32:30.050Z,102962.47
2022-10-06T08:34:57.245Z,102964.06
2022-10-06T08:37:24.556Z,102972.59
2022-10-06T08:39:51.625Z,102971.50
2022-10-06T08:42:26.630Z,102977.41
2022-10-06T08:45:04.960Z,102971.78
2022-10-06T08:47:35.879Z,102985.59
2022-10-06T08:50:09.771Z,102989.66
2022-10-06T08:52:48.492Z,102999.88
2022-10-06T08:55:42.891Z,103003.97
2022-10-06T08:58:37.231Z,103002.06
2022-10-06T09:01:12.682Z,103002.81
2022-10-06T09:03:39.385Z,103010.56
2022-10-06T09:06:24.408Z,103005.25
2022-10-06T09:08:56.538Z,103017.97
2022-10-06T09:11:35.377Z,103020.44
2022-10-06T09:14:14.897Z,103017.69
2022-10-06T09:16:48.595Z,103023.59
2022-10-06T09:19:31.449Z,103027.00
2022-10-06T09:22:04.590Z,103025.75
2022-10-06T09:24:37.339Z,103028.09
2022-10-06T09:27:16.855Z,103027.94
2022-10-06T09:29:43.397Z,103022.38
2022-10-06T09:32:10.988Z,103029.13
2022-10-06T09:34:42.772Z,103026.38
2022-10-06T09:37:12.813Z,103027.16
2022-10-06T09:39:41.617Z,103023.41
2022-10-06T09:42:35.445Z,103034.69
2022-10-06T09:45:16.981Z,103039.84
2022-10-06T09:47:45.373Z,103032.53
2022-10-06T09:50:22.638Z,103043.63
2022-10-06T09:52:58.308Z,103040.75
2022-10-06T09:55:29.743Z,103050.94
2022-10-06T09:57:57.533Z,103049.34
2022-10-06T10:00:38.676Z,103045.69
2022-10-06T10:03:13.539Z,103035.13
2022-10-06T10:05:48.067Z,103046.72
2022-10-06T10:08:14.407Z,103048.03
2022-10-06T10:10:41.237Z,103047.09
2022-10-06T10:13:26.005Z,103047.84
2022-10-06T10:15:53.675Z,103049.63
2022-10-06T10:18:26.500Z,103044.31
2022-10-06T10:21:00.965Z,103045.72
2022-10-06T10:23:33.127Z,103036.25
2022-10-06T10:26:08.228Z,103034.88
2022-10-06T10:28:46.938Z,103036.91
2022-10-06T10:31:39.050Z,103036.28
2022-10-06T10:34:23.944Z,103039.84
2022-10-06T10:37:21.914Z,103048.88
2022-10-06T10:39:58.527Z,103046.00
2022-10-06T10:42:35.137Z,103041.22
2022-10-06T10:45:05.061Z,103049.25
2022-10-06T10:47:36.664Z,103052.34
2022-10-06T10:50:26.282Z,103055.22
2022-10-06T10:52:58.237Z,103059.72
2022-10-06T10:55:29.887Z,103062.38
2022-10-06T10:58:01.436Z,103071.19
2022-10-06T11:00:30.849Z,103064.88
2022-10-06T11:02:58.849Z,103073.94
2022-10-06T11:05:50.194Z,103062.09
2022-10-06T11:08:35.962Z,103058.75
2022-10-06T11:11:06.512Z,103067.69
2022-10-06T11:13:40.771Z,103071.72
2022-10-06T11:16:18.032Z,103073.94
2022-10-06T11:19:03.018Z,103084.63
2022-10-06T11:21:50.739Z,103077.94
2022-10-06T11:24:40.127Z,103081.97
2022-10-06T11:27:20.192Z,103079.13
2022-10-06T11:30:04.213Z,103072.75
2022-10-06T11:32:44.703Z,103066.38
2022-10-06T11:35:24.056Z,103061.69
2022-10-06T11:37:53.816Z,103071.06
2022-10-06T11:40:38.576Z,103067.22
2022-10-06T11:43:15.296Z,103068.66
2022-10-06T11:45:55.134Z,103062.28
2022-10-06T11:48:27.990Z,103064.69
2022-10-06T11:50:58.087Z,103058.38
2022-10-06T11:53:37.473Z,103063.38
2022-10-06T11:56:23.989Z,103055.56
2022-10-06T11:58:56.351Z,103058.22
2022-10-06T12:01:32.444Z,103062.56
2022-10-06T12:04:08.081Z,103066.06
2022-10-06T12:06:46.835Z,103047.06
2022-10-06T12:09:29.232Z,103046.06
2022-10-06T12:11:59.817Z,103056.00
2022-10-06T12:17:42.436Z,103049.47
2022-10-06T12:20:26.365Z,103053.00
2022-10-06T12:23:15.592Z,103053.09
2022-10-06T12:25:55.284Z,103053.75
2022-10-06T12:28:33.955Z,103045.41
2022-10-06T12:31:19.527Z,103055.31
2022-10-06T12:33:46.284Z,103049.94
2022-10-06T12:36:19.001Z,103046.31
2022-10-06T12:39:06.764Z,103049.16
2022-10-06T12:42:01.280Z,103036.69
2022-10-06T12:44:37.331Z,103047.31
2022-10-06T12:47:22.660Z,103048.34
2022-10-06T12:49:57.077Z,103042.38
2022-10-06T12:52:53.776Z,103046.66
2022-10-06T12:55:38.996Z,103052.78
2022-10-06T12:58:07.888Z,103045.56
2022-10-06T13:00:37.492Z,103042.31
2022-10-06T13:03:07.157Z,103039.41
2022-10-06T13:05:35.462Z,103045.34
2022-10-06T13:08:04.830Z,103051.03
2022-10-06T13:10:35.341Z,103045.09
2022-10-06T13:13:01.877Z,103042.19
2022-10-06T13:15:34.967Z,103035.59
2022-10-06T13:18:13.033Z,103035.69
2022-10-06T13:20:50.438Z,103047.88
2022-10-06T13:23:27.694Z,103045.44
2022-10-06T13:25:57.655Z,103042.22
2022-10-06T13:28:34.242Z,103046.25
2022-10-06T13:31:03.451Z,103036.16
2022-10-06T13:33:38.388Z,103048.78
2022-10-06T13:36:06.087Z,103054.91
2022-10-06T13:38:35.079Z,103048.19
2022-10-06T13:41:04.393Z,103053.91
2022-10-06T13:43:34.100Z,103045.88
2022-10-06T13:46:07.792Z,103044.94
2022-10-06T13:48:34.730Z,103035.47
2022-10-06T13:51:03.401Z,103036.25
2022-10-06T13:53:31.792Z,103040.38
2022-10-06T13:55:58.799Z,103040.91
2022-10-06T13:58:27.893Z,103044.94
2022-10-06T14:01:01.017Z,103048.13
2022-10-06T14:03:28.401Z,103052.91
2022-10-06T14:06:06.574Z,103050.13
2022-10-06T14:08:33.807Z,103047.09
2022-10-06T14:11:04.620Z,103055.41
2022-10-06T14:13:39.440Z,103051.97
2022-10-06T14:16:18.203Z,103049.09
2022-10-06T14:21:41.941Z,103041.09
2022-10-06T14:24:18.952Z,103048.72
2022-10-06T14:26:47.103Z,103057.06
2022-10-06T14:29:16.573Z,103048.44
2022-10-06T14:31:44.278Z,103057.91
2022-10-06T14:34:14.770Z,103049.44
2022-10-06T14:36:43.656Z,103054.56
2022-10-06T14:39:12.585Z,103041.34
2022-10-06T14:41:39.225Z,103039.47
2022-10-06T14:44:09.809Z,103036.91
2022-10-06T14:46:37.985Z,103030.69
2022-10-06T14:49:09.516Z,103039.69
2022-10-06T14:51:37.395Z,103040.13
2022-10-06T14:54:05.100Z,103039.56
2022-10-06T14:56:33.823Z,103033.66
2022-10-06T14:59:03.950Z,103031.50
2022-10-06T15:01:33.327Z,103028.97
2022-10-06T15:04:03.653Z,103033.56
2022-10-06T15:06:48.617Z,103029.19
2022-10-06T15:09:15.251Z,103018.56
2022-10-06T15:11:42.099Z,103024.63
2022-10-06T15:14:08.735Z,103019.41
2022-10-06T15:16:39.262Z,103022.41
2022-10-06T15:19:06.076Z,103022.56
2022-10-06T15:21:33.412Z,103022.66
2022-10-06T15:24:02.785Z,103023.78
2022-10-06T15:26:48.885Z,103024.88
2022-10-06T15:29:16.156Z,103017.91
2022-10-06T15:31:45.451Z,103017.97
2022-10-06T15:34:14.193Z,103019.81
2022-10-06T15:36:42.615Z,103019.44
2022-10-06T15:39:11.780Z,103025.84
2022-10-06T15:41:40.609Z,103028.53
2022-10-06T15:44:08.523Z,103018.22
2022-10-06T15:46:36.082Z,103026.25
2022-10-06T15:49:06.736Z,103023.31
2022-10-06T15:51:42.912Z,103028.97
2022-10-06T15:54:10.844Z,103024.03
2022-10-06T15:56:38.200Z,103021.66
2022-10-06T15:59:07.856Z,103027.34
2022-10-06T16:01:35.677Z,103023.09
2022-10-06T16:04:11.491Z,103022.25
2022-10-06T16:06:50.217Z,103020.75
2022-10-06T16:09:18.921Z,103022.59
2022-10-06T16:11:47.173Z,103022.84
2022-10-06T16:14:14.912Z,103028.41
2022-10-06T16:16:43.859Z,103025.28
2022-10-06T16:19:10.919Z,103034.38
2022-10-06T16:21:38.572Z,103030.38
2022-10-06T16:24:05.254Z,103033.16
2022-10-06T16:26:31.837Z,103029.91
2022-10-06T16:28:58.270Z,103037.13
2022-10-06T16:31:25.137Z,103033.97
2022-10-06T16:33:51.664Z,103036.03
2022-10-06T16:36:19.315Z,103040.66
2022-10-06T16:38:49.372Z,103038.25
2022-10-06T16:41:15.793Z,103035.94
2022-10-06T16:43:44.735Z,103050.19
2022-10-06T16:46:13.891Z,103039.94
2022-10-06T16:48:42.597Z,103046.97
2022-10-06T16:51:14.952Z,103041.91
2022-10-06T16:53:53.386Z,103039.47
2022-10-06T16:56:27.331Z,103043.25
2022-10-06T16:58:58.793Z,103046.00
2022-10-06T17:01:28.036Z,103041.94
2022-10-06T17:04:22.299Z,103043.03
2022-10-06T17:06:50.537Z,103046.75
2022-10-06T17:09:19.484Z,103049.59
2022-10-06T17:11:51.577Z,103044.63
2022-10-06T17:14:19.338Z,103045.66
2022-10-06T17:16:46.855Z,103047.56
2022-10-06T17:19:15.541Z,103048.59
2022-10-06T17:21:48.113Z,103039.22
2022-10-06T17:24:19.868Z,103044.66
2022-10-06T17:26:49.094Z,103038.75
2022-10-06T17:29:22.365Z,103040.72
2022-10-06T17:31:55.964Z,103042.50
2022-10-06T17:34:26.507Z,103035.66
2022-10-06T17:36:54.538Z,103042.78
2022-10-06T17:39:22.730Z,103042.91
2022-10-06T17:41:52.533Z,103036.13
2022-10-06T17:44:23.788Z,103038.94
2022-10-06T17:46:53.800Z,103030.34
2022-10-06T17:49:22.019Z,103035.84
2022-10-06T17:51:49.550Z,103029.06
2022-10-06T17:54:19.988Z,103030.88
2022-10-06T17:56:48.936Z,103038.03
2022-10-06T17:59:24.550Z,103033.00
2022-10-06T18:01:53.961Z,103036.59
2022-10-06T18:04:20.573Z,103036.75
2022-10-06T18:06:47.661Z,103031.69
2022-10-06T18:09:15.106Z,103037.09
2022-10-06T18:11:44.287Z,103031.94
2022-10-06T18:14:11.805Z,103022.56
2022-10-06T18:16:39.683Z,103019.28
2022-10-06T18:19:18.561Z,103022.09
2022-10-06T18:21:47.827Z,103022.22
2022-10-06T18:24:21.014Z,103029.34
2022-10-06T18:26:53.137Z,103027.75
2022-10-06T18:29:22.932Z,103026.94
2022-10-06T18:31:51.468Z,103027.19
2022-10-06T18:36:10.973Z,103029.16
2022-10-06T18:37:04.612Z,103026.69
2022-10-06T18:39:31.198Z,103025.13
2022-10-06T18:41:59.144Z,103030.44
2022-10-06T18:44:44.229Z,103021.75
2022-10-06T18:47:29.238Z,103023.69
2022-10-06T18:49:55.914Z,103024.69
2022-10-06T18:52:22.663Z,103025.66
2022-10-06T18:54:50.092Z,103020.50
2022-10-06T18:57:16.923Z,103018.00
2022-10-06T18:59:43.387Z,103027.72
2022-10-06T19:02:10.982Z,103024.31
2022-10-06T19:04:39.117Z,103025.22
2022-10-06T19:07:05.974Z,103018.38
2022-10-06T19:09:32.396Z,103023.72
2022-10-06T19:11:58.881Z,103022.09
2022-10-06T19:16:59.158Z,103022.31
2022-10-06T19:19:27.456Z,103018.06
2022-10-06T19:21:59.683Z,103020.00
2022-10-06T19:24:38.081Z,103014.88
2022-10-06T19:27:12.157Z,103021.09
2022-10-06T19:29:42.438Z,103023.78
2022-10-06T19:32:08.901Z,103026.56
2022-10-06T19:34:37.325Z,103026.63
2022-10-06T19:37:04.624Z,103027.59
2022-10-06T19:39:35.177Z,103020.75
2022-10-06T19:42:20.633Z,103021.72
2022-10-06T19:44:47.077Z,103025.25
2022-10-06T19:47:14.903Z,103023.59
2022-10-06T19:49:41.968Z,103027.06
2022-10-06T19:52:10.890Z,103032.34
2022-10-06T19:54:38.593Z,103030.72
2022-10-06T19:57:05.943Z,103027.34
2022-10-06T19:59:33.065Z,103028.28
2022-10-06T20:01:59.558Z,103027.53
2022-10-06T20:04:26.244Z,103019.81
2022-10-06T20:06:53.343Z,103025.09
2022-10-06T20:09:22.148Z,103027.78
2022-10-06T20:11:50.333Z,103029.59
2022-10-06T20:14:21.155Z,103034.88
2022-10-06T20:16:50.578Z,103033.16
2022-10-06T20:19:18.439Z,103024.56
2022-10-06T20:21:45.061Z,103028.13
2022-10-06T20:24:22.526Z,103021.22
2022-10-06T20:26:50.443Z,103016.91
2022-10-06T20:29:23.343Z,103024.78
2022-10-06T20:31:55.111Z,103029.97
2022-10-06T20:34:24.658Z,103023.13
2022-10-06T20:36:56.056Z,103029.19
2022-10-06T20:39:42.893Z,103022.28
2022-10-06T20:42:14.832Z,103031.91
2022-10-06T20:44:42.195Z,103029.28
2022-10-06T20:47:08.958Z,103027.63
2022-10-06T20:49:35.681Z,103025.94
2022-10-06T20:52:03.352Z,103026.00
2022-10-06T20:54:36.192Z,103032.16
2022-10-06T20:57:04.755Z,103023.50
2022-10-06T20:59:31.905Z,103015.75
2022-10-06T21:02:01.408Z,103019.31
2022-10-06T21:04:28.144Z,103011.59
2022-10-06T21:06:54.843Z,103015.09
2022-10-06T21:09:21.603Z,103010.78
2022-10-06T21:11:48.390Z,103015.19
2022-10-06T21:14:15.816Z,103009.16
2022-10-06T21:16:44.459Z,103004.84
2022-10-06T21:19:19.271Z,103009.22
2022-10-06T21:21:52.210Z,102998.81
2022-10-06T21:24:20.401Z,103010.09
2022-10-06T21:26:47.184Z,102999.72
2022-10-06T21:29:16.229Z,103008.44
2022-10-06T21:31:43.702Z,103004.06
2022-10-06T21:34:10.663Z,103001.53
2022-10-06T21:36:38.032Z,103005.94
2022-10-06T21:39:05.933Z,103004.19
2022-10-06T21:41:35.070Z,102997.25
2022-10-06T21:44:07.238Z,102993.84
2022-10-06T21:46:37.744Z,102995.66
2022-10-06T21:49:12.361Z,102989.66
2022-10-06T21:51:40.411Z,102986.19
2022-10-06T21:54:07.443Z,102983.59
2022-10-06T21:56:34.021Z,102982.78
2022-10-06T21:59:00.533Z,102978.44
2022-10-06T22:01:30.054Z,102963.75
2022-10-06T22:03:57.941Z,102964.63
2022-10-06T22:06:24.468Z,102956.84
2022-10-06T22:08:50.967Z,102962.00
2022-10-06T22:11:21.040Z,102958.59
2022-10-06T22:13:50.285Z,102953.41
2022-10-06T22:16:19.363Z,102954.34
2022-10-06T22:18:46.675Z,102946.63
2022-10-06T22:21:14.780Z,102948.38
2022-10-06T22:23:43.269Z,102937.97
2022-10-06T22:26:11.771Z,102935.47
2022-10-06T22:28:39.048Z,102937.22
2022-10-06T22:31:09.000Z,102928.59
2022-10-06T22:33:38.730Z,102931.25
2022-10-06T22:36:07.819Z,102927.81
2022-10-06T22:38:34.904Z,102928.69
2022-10-06T22:41:07.407Z,102924.41
2022-10-06T22:43:34.599Z,102920.97
2022-10-06T22:46:01.889Z,102916.69
2022-10-06T22:48:28.921Z,102914.13
2022-10-06T22:50:55.369Z,102921.13
2022-10-06T22:53:24.253Z,102916.81
2022-10-06T22:55:51.602Z,102915.09
2022-10-06T22:58:18.847Z,102916.00
2022-10-06T23:00:45.763Z,102910.84
2022-10-06T23:03:12.454Z,102905.69
2022-10-06T23:05:40.023Z,102900.53
2022-10-06T23:08:07.717Z,102898.81
2022-10-06T23:10:35.939Z,102889.28
2022-10-06T23:13:02.987Z,102889.31
2022-10-06T23:15:29.603Z,102883.28
2022-10-06T23:17:56.098Z,102879.81
2022-10-06T23:20:22.532Z,102879.81
2022-10-06T23:22:49.043Z,102884.16
2022-10-06T23:25:15.849Z,102877.25
2022-10-06T23:27:42.677Z,102882.47
2022-10-06T23:30:10.150Z,102874.69
2022-10-06T23:32:37.528Z,102873.84
2022-10-06T23:35:04.565Z,102871.31
2022-10-06T23:37:31.082Z,102870.50
2022-10-06T23:39:57.708Z,102867.03
2022-10-06T23:42:24.180Z,102859.25
2022-10-06T23:44:50.618Z,102863.63
2022-10-06T23:47:17.143Z,102861.91
2022-10-06T23:49:43.685Z,102861.13
2022-10-06T23:52:10.185Z,102862.91
2022-10-06T23:54:36.871Z,102856.88
2022-10-06T23:57:04.237Z,102857.78
2022-10-06T23:59:31.142Z,102859.56
